Time;durP1;ratioP1;P1;durP2;ratioP2;P2;SDS_P1;SDS_P2;PMS_P1;PMS_P2;Temp;Humidity;BMP_temperature;BMP_pressure;BME280_temperature;BME280_humidity;BME280_pressure;Samples;Min_cycle;Max_cycle;Signal;HPM_P1;HPM_P2
2023/01/09 00:01:35;;;;;;;4.80;2.20;;;6.50;99.90;;;;;;5016343;28;20033;-63
2023/01/09 00:04:01;;;;;;;3.83;2.13;;;6.60;99.90;;;;;;5015710;28;20120;-63
2023/01/09 00:06:26;;;;;;;6.68;2.55;;;6.60;99.90;;;;;;5020505;28;20124;-62
2023/01/09 00:08:52;;;;;;;5.50;2.00;;;6.70;99.90;;;;;;5032225;28;20465;-62
2023/01/09 00:11:17;;;;;;;3.72;1.98;;;6.80;99.90;;;;;;5028503;28;20061;-62
2023/01/09 00:13:43;;;;;;;6.75;2.10;;;6.80;99.90;;;;;;5019025;28;20386;-62
2023/01/09 00:16:09;;;;;;;5.22;2.17;;;6.80;99.90;;;;;;5028967;28;20041;-62
2023/01/09 00:18:35;;;;;;;4.25;2.22;;;6.80;99.90;;;;;;5023326;28;20053;-62
2023/01/09 00:21:03;;;;;;;5.05;2.00;;;6.90;99.90;;;;;;5025077;28;20038;-62
2023/01/09 00:23:29;;;;;;;4.32;1.90;;;6.90;99.90;;;;;;5016680;28;20041;-62
2023/01/09 00:26:07;;;;;;;4.05;2.00;;;6.90;99.90;;;;;;5016843;28;20064;-62
2023/01/09 00:28:33;;;;;;;4.32;2.00;;;7.00;99.90;;;;;;5014398;28;20041;-62
2023/01/09 00:31:00;;;;;;;4.03;2.08;;;7.00;99.90;;;;;;5019251;28;20401;-63
2023/01/09 00:33:35;;;;;;;6.32;2.97;;;7.00;99.90;;;;;;5019382;28;20076;-63
2023/01/09 00:36:01;;;;;;;4.22;2.10;;;7.00;99.90;;;;;;5014345;28;20050;-62
2023/01/09 00:38:27;;;;;;;5.60;2.00;;;6.90;99.90;;;;;;5011542;28;20034;-63
2023/01/09 00:40:54;;;;;;;10.10;2.10;;;6.80;99.90;;;;;;5021589;28;20385;-62
2023/01/09 00:43:22;;;;;;;4.82;2.15;;;6.70;99.90;;;;;;5026717;28;20041;-62
2023/01/09 00:45:49;;;;;;;4.15;2.30;;;6.60;99.90;;;;;;5029078;28;20080;-63
2023/01/09 00:48:23;;;;;;;6.28;2.42;;;6.50;99.90;;;;;;5018652;28;20457;-64
2023/01/09 00:50:49;;;;;;;5.97;2.30;;;6.50;99.90;;;;;;5017136;28;20044;-63
2023/01/09 00:53:20;;;;;;;5.18;2.83;;;6.50;99.90;;;;;;5028309;28;20030;-63
2023/01/09 00:55:45;;;;;;;8.32;2.80;;;6.50;99.90;;;;;;5024435;28;20054;-62
2023/01/09 00:58:11;;;;;;;5.28;2.50;;;6.40;99.90;;;;;;5018455;28;20064;-64
2023/01/09 01:00:37;;;;;;;3.05;1.90;;;6.40;99.90;;;;;;5024532;28;20503;-63
2023/01/09 01:03:02;;;;;;;3.78;1.85;;;6.40;99.90;;;;;;5023066;28;20045;-63
2023/01/09 01:08:14;;;;;;;2.63;1.33;;;6.30;99.90;;;;;;5016947;28;20041;-64
2023/01/09 01:10:40;;;;;;;2.58;1.27;;;6.20;99.90;;;;;;5020439;28;20041;-64
2023/01/09 01:13:06;;;;;;;2.72;1.23;;;6.20;99.90;;;;;;5021773;28;20152;-65
2023/01/09 01:15:31;;;;;;;4.13;1.20;;;6.10;99.90;;;;;;5021221;28;20048;-63
2023/01/09 01:17:58;;;;;;;1.67;1.00;;;6.10;99.90;;;;;;5021946;28;20155;-64
2023/01/09 01:20:24;;;;;;;2.85;1.00;;;6.10;99.90;;;;;;5023046;28;20045;-64
2023/01/09 01:22:50;;;;;;;3.85;0.95;;;6.10;99.90;;;;;;5021473;28;22018;-64
2023/01/09 01:25:16;;;;;;;1.92;1.00;;;6.00;99.90;;;;;;5020444;28;20042;-63
2023/01/09 01:27:43;;;;;;;4.45;1.33;;;5.90;99.90;;;;;;5027121;28;20049;-63
2023/01/09 01:30:12;;;;;;;1.05;0.95;;;5.90;99.90;;;;;;5025032;28;20037;-63
2023/01/09 01:32:38;;;;;;;3.13;1.00;;;5.90;99.90;;;;;;5023679;28;22292;-63
2023/01/09 01:35:04;;;;;;;2.63;1.10;;;5.90;99.90;;;;;;5023670;28;20070;-64
2023/01/09 01:37:30;;;;;;;3.33;1.13;;;5.90;99.90;;;;;;5021979;28;20060;-63
2023/01/09 01:39:56;;;;;;;4.25;1.10;;;5.80;99.90;;;;;;5026674;28;20045;-64
2023/01/09 01:42:22;;;;;;;1.27;1.00;;;5.80;99.90;;;;;;5027896;28;20045;-63
2023/01/09 01:45:06;;;;;;;1.80;0.85;;;5.90;99.90;;;;;;5024901;28;20458;-64
2023/01/09 01:47:40;;;;;;;1.73;1.08;;;5.90;99.90;;;;;;5021386;28;20044;-63
2023/01/09 01:50:13;;;;;;;2.15;0.82;;;5.80;99.90;;;;;;5024872;28;20627;-63
2023/01/09 01:52:41;;;;;;;2.25;0.98;;;5.70;99.90;;;;;;5017967;28;20128;-63
2023/01/09 01:55:08;;;;;;;1.92;1.30;;;5.80;99.90;;;;;;5023462;28;20049;-63
2023/01/09 01:57:36;;;;;;;3.60;1.30;;;5.80;99.90;;;;;;5020245;28;20061;-63
2023/01/09 02:00:03;;;;;;;2.05;1.27;;;5.70;99.90;;;;;;5023201;28;20053;-63
2023/01/09 02:02:31;;;;;;;2.03;1.00;;;5.70;99.90;;;;;;5020198;28;20037;-63
2023/01/09 02:04:58;;;;;;;2.20;1.15;;;5.70;99.90;;;;;;5027335;28;20099;-63
2023/01/09 02:07:24;;;;;;;4.10;1.20;;;5.70;99.90;;;;;;5021644;28;20543;-63
2023/01/09 02:09:51;;;;;;;2.58;1.45;;;5.70;99.90;;;;;;5024670;28;20037;-63
2023/01/09 02:12:22;;;;;;;3.25;1.42;;;5.70;99.90;;;;;;5016316;28;20394;-63
2023/01/09 02:14:57;;;;;;;1.63;1.27;;;5.70;99.90;;;;;;5023195;28;20048;-63
2023/01/09 02:17:44;;;;;;;2.35;1.30;;;5.80;99.90;;;;;;5017512;28;20091;-63
2023/01/09 02:20:12;;;;;;;3.28;1.55;;;5.90;99.90;;;;;;5021307;28;20488;-62
2023/01/09 02:22:49;;;;;;;5.63;2.20;;;5.80;99.90;;;;;;5017693;28;20613;-63
2023/01/09 02:25:53;;;;;;;5.25;1.80;;;5.90;99.90;;;;;;5017422;28;20077;-63
2023/01/09 02:28:30;;;;;;;2.78;1.55;;;5.90;99.90;;;;;;5022586;28;20037;-63
2023/01/09 02:31:06;;;;;;;3.78;1.90;;;5.90;99.90;;;;;;5029572;28;20052;-64
2023/01/09 02:33:48;;;;;;;7.28;2.72;;;5.90;99.90;;;;;;5023892;28;20127;-63
2023/01/09 02:36:43;;;;;;;5.85;2.25;;;6.00;99.90;;;;;;5019670;28;20049;-62
2023/01/09 02:39:23;;;;;;;5.40;2.50;;;6.00;99.90;;;;;;5017890;28;20037;-62
2023/01/09 02:42:02;;;;;;;7.32;2.42;;;5.90;99.90;;;;;;5028606;28;20033;-63
2023/01/09 02:44:35;;;;;;;6.43;2.90;;;6.00;99.90;;;;;;5027509;28;20056;-63
2023/01/09 02:47:28;;;;;;;8.73;3.10;;;5.90;99.90;;;;;;5025107;28;20441;-62
2023/01/09 02:50:07;;;;;;;6.97;3.03;;;5.90;99.90;;;;;;5022932;28;20047;-63
2023/01/09 02:52:54;;;;;;;6.57;3.57;;;5.90;99.90;;;;;;5029412;28;20099;-63
2023/01/09 02:55:34;;;;;;;5.28;3.17;;;5.80;99.90;;;;;;5016685;28;20056;-63
2023/01/09 02:58:27;;;;;;;6.25;3.03;;;5.90;99.90;;;;;;5021939;28;20038;-63
2023/01/09 03:01:17;;;;;;;10.82;4.00;;;5.80;99.90;;;;;;5018253;28;20061;-63
2023/01/09 03:03:58;;;;;;;7.15;3.95;;;5.70;99.90;;;;;;5028498;28;20099;-62
2023/01/09 03:06:47;;;;;;;9.70;3.50;;;5.70;99.90;;;;;;5017961;28;20543;-63
2023/01/09 03:09:22;;;;;;;6.22;3.30;;;5.70;99.90;;;;;;5019169;28;20045;-63
2023/01/09 03:11:58;;;;;;;6.07;3.85;;;5.70;99.90;;;;;;5020108;28;20033;-63
2023/01/09 03:14:25;;;;;;;6.45;3.55;;;5.60;99.90;;;;;;5022907;28;20041;-63
2023/01/09 03:16:58;;;;;;;8.57;3.30;;;5.60;99.90;;;;;;5028730;28;20038;-62
2023/01/09 03:19:29;;;;;;;6.57;3.50;;;5.60;99.90;;;;;;5019206;28;20045;-63
2023/01/09 03:21:55;;;;;;;10.65;3.65;;;5.60;99.90;;;;;;5014976;28;20030;-63
2023/01/09 03:24:20;;;;;;;7.30;3.70;;;5.50;99.90;;;;;;5017662;28;20037;-63
2023/01/09 03:26:46;;;;;;;7.00;3.38;;;5.60;99.90;;;;;;5023021;28;20531;-63
2023/01/09 03:29:12;;;;;;;8.95;3.75;;;5.50;99.90;;;;;;5020519;28;20044;-63
2023/01/09 03:31:38;;;;;;;7.55;3.20;;;5.50;99.90;;;;;;5024054;28;20045;-63
2023/01/09 03:34:03;;;;;;;7.53;3.78;;;5.40;99.90;;;;;;5027643;28;20500;-63
2023/01/09 03:36:29;;;;;;;8.93;3.88;;;5.50;99.90;;;;;;5025772;28;20052;-63
2023/01/09 03:38:54;;;;;;;5.85;3.40;;;5.40;99.90;;;;;;5025441;28;20045;-63
2023/01/09 03:41:20;;;;;;;7.43;3.17;;;5.40;99.90;;;;;;5019126;28;20404;-63
2023/01/09 03:43:47;;;;;;;7.43;3.67;;;5.40;99.90;;;;;;5028373;28;20038;-63
2023/01/09 03:46:16;;;;;;;8.00;3.47;;;5.40;99.90;;;;;;5025184;28;20475;-63
2023/01/09 03:48:41;;;;;;;6.70;3.58;;;5.40;99.90;;;;;;5016204;28;20052;-63
2023/01/09 03:51:07;;;;;;;6.88;3.42;;;5.30;99.90;;;;;;5025329;28;20045;-63
2023/01/09 03:53:33;;;;;;;13.38;3.83;;;5.30;99.90;;;;;;5024948;28;20025;-63
2023/01/09 03:55:58;;;;;;;8.68;3.63;;;5.20;99.90;;;;;;5027169;28;20096;-63
2023/01/09 03:58:25;;;;;;;10.38;3.80;;;5.20;99.90;;;;;;5024323;28;20045;-63
2023/01/09 04:00:55;;;;;;;10.75;4.40;;;5.20;99.90;;;;;;5014379;28;20041;-63
2023/01/09 04:03:21;;;;;;;8.93;3.00;;;5.20;99.90;;;;;;5024227;28;20049;-63
2023/01/09 04:05:48;;;;;;;5.88;3.20;;;5.10;99.90;;;;;;5024552;28;20041;-63
2023/01/09 04:08:15;;;;;;;7.13;3.50;;;5.00;99.90;;;;;;5019753;28;20041;-63
2023/01/09 04:10:52;;;;;;;8.63;3.38;;;5.00;99.90;;;;;;5020999;28;20071;-62
2023/01/09 04:13:18;;;;;;;6.97;3.47;;;5.00;99.90;;;;;;5028751;28;20481;-63
2023/01/09 04:15:43;;;;;;;6.72;3.20;;;4.90;99.90;;;;;;5027475;28;20045;-63
2023/01/09 04:18:09;;;;;;;9.63;3.90;;;4.90;99.90;;;;;;5021378;28;20037;-63
2023/01/09 04:20:35;;;;;;;7.68;3.58;;;4.90;99.90;;;;;;5020636;28;20037;-63
2023/01/09 04:23:01;;;;;;;9.20;4.13;;;4.80;99.90;;;;;;5025312;28;20045;-63
2023/01/09 04:25:26;;;;;;;7.63;3.53;;;4.80;99.90;;;;;;5028972;28;20049;-62
2023/01/09 04:27:52;;;;;;;9.07;3.90;;;4.80;99.90;;;;;;5026425;28;20033;-62
2023/01/09 04:30:18;;;;;;;8.77;4.45;;;4.80;99.90;;;;;;5022488;28;20846;-63
2023/01/09 04:32:43;;;;;;;11.93;4.07;;;4.70;99.90;;;;;;5028765;28;20052;-63
2023/01/09 04:35:09;;;;;;;8.85;3.85;;;4.80;99.90;;;;;;5025452;28;20038;-62
2023/01/09 04:37:37;;;;;;;11.43;5.13;;;4.80;99.90;;;;;;5023660;28;20041;-62
2023/01/09 04:40:10;;;;;;;14.07;4.80;;;4.80;99.90;;;;;;5020558;28;20595;-63
2023/01/09 04:42:37;;;;;;;14.07;7.68;;;4.80;99.90;;;;;;5026195;28;20072;-63
2023/01/09 04:45:04;;;;;;;12.07;6.63;;;4.70;99.90;;;;;;5024594;28;20053;-63
2023/01/09 04:47:30;;;;;;;15.23;6.57;;;4.80;99.90;;;;;;5027846;28;20469;-63
2023/01/09 04:49:56;;;;;;;14.45;6.35;;;4.70;99.90;;;;;;5017322;28;20128;-63
2023/01/09 04:52:21;;;;;;;14.82;6.43;;;4.70;99.90;;;;;;5026174;28;20053;-63
2023/01/09 04:54:47;;;;;;;13.68;6.68;;;4.70;99.90;;;;;;5029933;28;20032;-62
2023/01/09 04:57:13;;;;;;;14.20;6.75;;;4.60;99.90;;;;;;5033241;28;20095;-62
2023/01/09 04:59:38;;;;;;;16.98;7.88;;;4.70;99.90;;;;;;5028432;28;20379;-63
2023/01/09 05:02:04;;;;;;;15.05;7.63;;;4.70;99.90;;;;;;5018147;28;20046;-62
2023/01/09 05:04:29;;;;;;;18.25;7.90;;;4.70;99.90;;;;;;5026723;28;20077;-62
2023/01/09 05:06:55;;;;;;;15.05;8.38;;;4.70;99.90;;;;;;5026101;28;20041;-62
2023/01/09 05:09:21;;;;;;;19.67;8.68;;;4.60;99.90;;;;;;5027319;28;20389;-64
2023/01/09 05:11:48;;;;;;;21.52;10.43;;;4.70;99.90;;;;;;5028623;28;20034;-63
2023/01/09 05:14:13;;;;;;;22.05;10.40;;;4.70;99.90;;;;;;5014959;28;20065;-63
2023/01/09 05:16:39;;;;;;;21.27;9.80;;;4.80;99.90;;;;;;5028861;28;20041;-63
2023/01/09 05:19:04;;;;;;;23.90;10.90;;;4.80;99.90;;;;;;5029345;28;20133;-63
2023/01/09 05:21:30;;;;;;;23.75;11.07;;;4.80;99.90;;;;;;5021477;28;20064;-63
2023/01/09 05:23:56;;;;;;;26.02;11.07;;;4.90;99.90;;;;;;5022301;28;20041;-63
2023/01/09 05:26:24;;;;;;;28.05;11.23;;;4.90;99.90;;;;;;5030289;28;20041;-63
2023/01/09 05:28:51;;;;;;;25.45;11.70;;;4.90;99.90;;;;;;5024323;28;20451;-63
2023/01/09 05:31:17;;;;;;;24.38;11.35;;;4.90;99.90;;;;;;5040018;28;20128;-63
2023/01/09 05:33:43;;;;;;;23.98;12.02;;;4.90;99.90;;;;;;5028910;28;20041;-62
2023/01/09 05:36:08;;;;;;;26.13;12.20;;;4.90;99.90;;;;;;5024203;28;20033;-63
2023/01/09 05:38:34;;;;;;;26.98;12.30;;;4.90;99.90;;;;;;5023058;28;20046;-63
2023/01/09 05:40:59;;;;;;;25.83;11.93;;;4.90;99.90;;;;;;5021232;28;20384;-63
2023/01/09 05:43:25;;;;;;;25.15;12.57;;;5.00;99.90;;;;;;5034221;28;20046;-63
2023/01/09 05:45:51;;;;;;;27.52;13.38;;;5.00;99.90;;;;;;5027156;28;20220;-62
2023/01/09 05:48:16;;;;;;;26.02;12.77;;;5.00;99.90;;;;;;5023216;28;20034;-62
2023/01/09 05:50:42;;;;;;;28.35;13.27;;;5.10;99.90;;;;;;5024814;28;20095;-63
2023/01/09 05:53:08;;;;;;;26.20;13.20;;;5.10;99.90;;;;;;5016631;28;20473;-62
2023/01/09 05:55:33;;;;;;;29.80;13.93;;;5.10;99.90;;;;;;5026093;28;20053;-62
2023/01/09 05:57:59;;;;;;;29.38;13.02;;;5.10;99.90;;;;;;5025096;28;20048;-63
2023/01/09 06:00:24;;;;;;;27.17;13.18;;;5.10;99.90;;;;;;5027764;28;20041;-63
2023/01/09 06:02:50;;;;;;;26.23;13.40;;;5.10;99.90;;;;;;5014315;28;20037;-63
2023/01/09 06:05:16;;;;;;;25.20;12.30;;;5.10;99.90;;;;;;5029475;28;20050;-63
2023/01/09 06:07:41;;;;;;;25.58;12.10;;;5.10;99.90;;;;;;5018029;28;20042;-62
2023/01/09 06:10:09;;;;;;;23.25;12.75;;;5.20;99.90;;;;;;5026017;28;20103;-63
2023/01/09 06:12:35;;;;;;;23.38;11.82;;;5.10;99.90;;;;;;5031593;28;20509;-62
2023/01/09 06:15:01;;;;;;;21.75;11.25;;;5.10;99.90;;;;;;5024142;28;20045;-62
2023/01/09 06:17:26;;;;;;;25.65;13.10;;;5.20;99.90;;;;;;5029941;28;20535;-62
2023/01/09 06:19:52;;;;;;;22.67;11.60;;;5.10;99.90;;;;;;5031139;28;20103;-62
2023/01/09 06:22:17;;;;;;;26.50;11.63;;;5.20;99.90;;;;;;5026179;28;20088;-62
2023/01/09 06:24:43;;;;;;;24.45;12.48;;;5.20;99.90;;;;;;5014867;28;20041;-63
2023/01/09 06:27:09;;;;;;;24.38;11.73;;;5.20;99.90;;;;;;5027625;28;20133;-62
2023/01/09 06:29:34;;;;;;;26.42;11.30;;;5.20;99.90;;;;;;5024441;28;20116;-62
2023/01/09 06:32:00;;;;;;;21.90;10.70;;;5.20;99.90;;;;;;5030658;28;20393;-62
2023/01/09 06:34:25;;;;;;;21.35;10.50;;;5.20;99.90;;;;;;5024194;28;20041;-63
2023/01/09 06:36:51;;;;;;;26.83;11.10;;;5.20;99.90;;;;;;5012999;28;20041;-63
2023/01/09 06:39:16;;;;;;;23.73;10.02;;;5.10;99.90;;;;;;5021092;28;20047;-63
2023/01/09 06:41:44;;;;;;;17.20;9.27;;;5.10;99.90;;;;;;5022220;28;20125;-62
2023/01/09 06:44:09;;;;;;;22.70;10.02;;;5.10;99.90;;;;;;5027645;28;20402;-62
2023/01/09 06:46:35;;;;;;;18.98;9.32;;;5.10;99.90;;;;;;5021830;28;20033;-63
2023/01/09 06:49:00;;;;;;;21.50;9.60;;;5.10;99.90;;;;;;5020972;28;20750;-63
2023/01/09 06:51:26;;;;;;;17.83;9.13;;;5.10;99.90;;;;;;5019825;28;20754;-63
2023/01/09 06:53:51;;;;;;;17.63;9.38;;;5.10;99.90;;;;;;5020948;28;20044;-63
2023/01/09 06:56:18;;;;;;;15.27;8.80;;;5.10;99.90;;;;;;5016399;28;20086;-63
2023/01/09 06:58:44;;;;;;;19.60;8.48;;;5.10;99.90;;;;;;5012278;28;20529;-63
2023/01/09 07:01:10;;;;;;;17.48;8.15;;;5.20;99.90;;;;;;5024461;28;20076;-62
2023/01/09 07:03:35;;;;;;;19.35;8.88;;;5.10;99.90;;;;;;5028052;28;20394;-62
2023/01/09 07:06:01;;;;;;;16.90;7.97;;;5.10;99.90;;;;;;5026676;28;20073;-62
2023/01/09 07:08:27;;;;;;;15.70;8.55;;;5.10;99.90;;;;;;5029103;28;20037;-62
2023/01/09 07:10:52;;;;;;;15.85;8.52;;;5.10;99.90;;;;;;5030772;28;20107;-62
2023/01/09 07:13:18;;;;;;;18.75;8.15;;;5.10;99.90;;;;;;5023130;28;20045;-63
2023/01/09 07:15:43;;;;;;;17.52;8.07;;;5.00;99.90;;;;;;5022984;28;20045;-62
2023/01/09 07:18:09;;;;;;;17.58;7.50;;;5.00;99.90;;;;;;5024024;28;20128;-62
2023/01/09 07:20:34;;;;;;;13.60;6.43;;;5.00;99.90;;;;;;5026645;28;20037;-63
2023/01/09 07:23:00;;;;;;;16.20;6.80;;;5.00;99.90;;;;;;5027297;28;20610;-63
2023/01/09 07:25:25;;;;;;;12.15;6.60;;;4.90;99.90;;;;;;5024851;28;20580;-63
2023/01/09 07:27:51;;;;;;;15.43;7.07;;;4.90;99.90;;;;;;5018637;28;20120;-62
2023/01/09 07:30:17;;;;;;;14.23;6.63;;;4.80;99.90;;;;;;5020217;28;20789;-62
2023/01/09 07:32:42;;;;;;;12.20;6.82;;;4.80;99.90;;;;;;5026103;28;20099;-62
2023/01/09 07:35:09;;;;;;;23.15;7.53;;;4.80;99.90;;;;;;5019256;28;20041;-62
2023/01/09 07:37:35;;;;;;;12.25;6.50;;;4.70;99.90;;;;;;5024239;28;20041;-63
2023/01/09 07:40:01;;;;;;;13.55;6.50;;;4.60;99.90;;;;;;5021187;28;20107;-62
2023/01/09 07:42:26;;;;;;;13.45;6.40;;;4.70;99.90;;;;;;5018813;28;20048;-62
2023/01/09 07:44:52;;;;;;;12.80;7.00;;;4.70;99.90;;;;;;5023814;28;20041;-62
2023/01/09 07:47:17;;;;;;;9.93;6.03;;;4.70;99.90;;;;;;5026316;28;20056;-62
2023/01/09 07:49:43;;;;;;;15.10;6.47;;;4.80;99.90;;;;;;5027556;28;20033;-62
2023/01/09 07:52:09;;;;;;;14.20;6.45;;;4.70;99.90;;;;;;5024969;28;20037;-62
2023/01/09 07:54:34;;;;;;;12.23;5.95;;;4.70;99.90;;;;;;5028761;28;20036;-62
2023/01/09 07:57:00;;;;;;;11.25;5.47;;;4.70;99.90;;;;;;5025940;28;20057;-62
2023/01/09 07:59:27;;;;;;;9.27;4.85;;;4.70;99.90;;;;;;5024204;28;20524;-62
2023/01/09 08:01:53;;;;;;;8.30;4.82;;;4.70;99.90;;;;;;5020251;28;20029;-62
2023/01/09 08:04:18;;;;;;;13.25;4.70;;;4.70;99.90;;;;;;5029423;28;20033;-62
2023/01/09 08:06:44;;;;;;;9.95;5.07;;;4.70;99.90;;;;;;5025779;28;20038;-62
2023/01/09 08:09:10;;;;;;;12.52;5.43;;;4.70;99.90;;;;;;5032384;28;20104;-62
2023/01/09 08:11:35;;;;;;;11.27;5.03;;;4.70;99.90;;;;;;5030716;28;20450;-62
2023/01/09 08:14:01;;;;;;;9.13;4.88;;;4.70;99.90;;;;;;5031384;28;20041;-62
2023/01/09 08:16:26;;;;;;;9.82;4.85;;;4.70;99.90;;;;;;5026640;28;20039;-62
2023/01/09 08:18:52;;;;;;;11.00;4.88;;;4.80;99.90;;;;;;5028458;28;20374;-62
2023/01/09 08:21:17;;;;;;;9.20;4.65;;;4.80;99.90;;;;;;5032477;28;20049;-62
2023/01/09 08:23:44;;;;;;;13.30;5.03;;;4.80;99.90;;;;;;5030943;28;20354;-62
2023/01/09 08:26:10;;;;;;;12.93;4.78;;;4.90;99.90;;;;;;5025839;28;20128;-63
2023/01/09 08:28:35;;;;;;;10.32;4.90;;;5.00;99.90;;;;;;5025438;28;20128;-62
2023/01/09 08:31:01;;;;;;;9.38;4.70;;;5.00;99.90;;;;;;5030115;28;20041;-62
2023/01/09 08:33:27;;;;;;;7.88;4.35;;;5.00;99.90;;;;;;5027456;28;20521;-63
2023/01/09 08:35:53;;;;;;;11.77;4.50;;;5.00;99.90;;;;;;5033837;28;20041;-61
2023/01/09 08:38:20;;;;;;;10.77;4.70;;;5.00;99.90;;;;;;5029893;28;20120;-63
2023/01/09 08:40:47;;;;;;;12.23;4.50;;;5.00;99.90;;;;;;5023818;28;20513;-62
2023/01/09 08:48:42;;;;;;;11.90;4.03;;;5.20;99.90;;;;;;5028407;28;20452;-62
2023/01/09 08:51:08;;;;;;;8.18;4.13;;;5.10;99.90;;;;;;5029122;28;20417;-62
2023/01/09 08:53:33;;;;;;;9.48;4.60;;;5.10;99.90;;;;;;5027966;28;20068;-62
2023/01/09 08:55:59;;;;;;;12.45;5.38;;;5.10;99.90;;;;;;5007263;28;20084;-63
2023/01/09 08:58:25;;;;;;;7.93;4.22;;;5.20;99.90;;;;;;5019457;28;20050;-62
2023/01/09 09:00:51;;;;;;;7.40;3.72;;;5.20;99.90;;;;;;5023536;28;20060;-62
2023/01/09 09:03:16;;;;;;;10.32;4.07;;;5.20;99.90;;;;;;5025086;28;20056;-63
2023/01/09 09:05:42;;;;;;;9.90;3.78;;;5.20;99.90;;;;;;5018893;28;20450;-62
2023/01/09 09:08:08;;;;;;;10.35;4.18;;;5.30;99.90;;;;;;5027870;28;20038;-62
2023/01/09 09:10:34;;;;;;;8.32;3.70;;;5.40;99.90;;;;;;5026664;28;20025;-62
2023/01/09 09:12:59;;;;;;;8.77;3.85;;;5.40;99.90;;;;;;5024557;28;20038;-63
2023/01/09 09:15:26;;;;;;;9.95;4.07;;;5.50;99.90;;;;;;5025877;28;20125;-63
2023/01/09 09:17:53;;;;;;;7.00;3.53;;;5.50;99.90;;;;;;5033470;28;20120;-62
2023/01/09 09:20:20;;;;;;;10.30;4.35;;;5.50;99.90;;;;;;5026530;28;20041;-63
2023/01/09 09:22:46;;;;;;;9.48;3.90;;;5.50;99.90;;;;;;5024245;28;20072;-63
2023/01/09 09:25:13;;;;;;;10.00;4.53;;;5.50;99.90;;;;;;5024373;28;20503;-62
2023/01/09 09:27:39;;;;;;;9.10;3.90;;;5.60;99.90;;;;;;5029955;28;20041;-62
2023/01/09 09:30:05;;;;;;;9.02;4.15;;;5.60;99.90;;;;;;5027321;28;20056;-61
2023/01/09 09:32:31;;;;;;;10.63;4.10;;;5.60;99.90;;;;;;5027136;28;20099;-62
2023/01/09 09:34:57;;;;;;;11.68;3.90;;;5.70;99.90;;;;;;5030540;28;20041;-63
2023/01/09 09:37:23;;;;;;;10.82;4.03;;;5.70;99.90;;;;;;5033023;28;20135;-62
2023/01/09 09:39:48;;;;;;;9.45;3.95;;;5.80;99.90;;;;;;5033154;28;20037;-62
2023/01/09 09:45:38;;;;;;;9.90;4.25;;;5.90;99.90;;;;;;5026797;28;20654;-62
2023/01/09 09:48:22;;;;;;;8.43;3.80;;;6.00;99.90;;;;;;5028829;28;20091;-63
2023/01/09 09:51:20;;;;;;;10.48;4.25;;;6.10;99.90;;;;;;5032007;28;20152;-62
2023/01/09 09:53:58;;;;;;;9.10;4.22;;;6.10;99.90;;;;;;5044489;28;20037;-62
2023/01/09 09:56:26;;;;;;;7.80;4.50;;;6.00;99.90;;;;;;5023068;28;20101;-63
2023/01/09 09:59:07;;;;;;;10.68;3.75;;;5.90;99.90;;;;;;5032100;28;20077;-63
2023/01/09 10:01:41;;;;;;;8.43;4.57;;;5.90;99.90;;;;;;5029498;28;20139;-62
2023/01/09 10:04:13;;;;;;;8.40;3.60;;;5.90;99.90;;;;;;5031496;28;20042;-62
2023/01/09 10:06:43;;;;;;;9.30;3.90;;;5.90;99.90;;;;;;5030991;28;20092;-62
2023/01/09 10:09:25;;;;;;;9.60;3.83;;;6.00;99.90;;;;;;5030470;28;20044;-62
2023/01/09 10:12:09;;;;;;;7.57;3.75;;;6.00;99.90;;;;;;5028017;28;20038;-64
2023/01/09 10:14:35;;;;;;;9.80;4.00;;;6.10;99.90;;;;;;5024597;28;20034;-62
2023/01/09 10:17:28;;;;;;;6.10;3.35;;;6.10;99.90;;;;;;5028135;28;20100;-62
2023/01/09 10:19:57;;;;;;;6.03;3.55;;;6.20;99.90;;;;;;5033127;28;20072;-62
2023/01/09 10:22:53;;;;;;;11.13;3.85;;;6.20;99.90;;;;;;5048088;28;20463;-62
2023/01/09 10:25:39;;;;;;;11.05;4.70;;;6.30;99.90;;;;;;5031503;28;20470;-63
2023/01/09 10:28:46;;;;;;;9.20;3.72;;;6.40;99.90;;;;;;5033865;28;20144;-62
2023/01/09 10:31:36;;;;;;;8.48;4.13;;;6.50;99.90;;;;;;5007845;28;20100;-62
2023/01/09 10:34:19;;;;;;;10.15;3.90;;;6.60;99.90;;;;;;5014517;28;20493;-63
2023/01/09 10:37:16;;;;;;;7.63;4.10;;;6.70;99.90;;;;;;5023039;28;20083;-62
2023/01/09 10:39:54;;;;;;;9.30;3.80;;;6.70;99.90;;;;;;5030138;28;20432;-62
2023/01/09 10:42:22;;;;;;;7.50;3.45;;;6.70;99.90;;;;;;5030667;28;20134;-63
2023/01/09 10:45:23;;;;;;;11.23;4.25;;;6.70;99.90;;;;;;5026953;28;20041;-62
2023/01/09 10:47:48;;;;;;;;;;;6.70;99.90;;;;;;5028412;28;20114;-62
2023/01/09 10:50:21;;;;;;;8.13;3.00;;;6.70;99.90;;;;;;5038108;28;19917;-62
2023/01/09 10:52:48;;;;;;;5.65;3.38;;;6.70;99.90;;;;;;5031485;28;20048;-62
2023/01/09 10:55:34;;;;;;;9.57;3.50;;;6.80;99.90;;;;;;5030851;28;20128;-63
2023/01/09 10:58:11;;;;;;;5.80;3.35;;;6.70;99.90;;;;;;5031966;28;20060;-62
2023/01/09 11:00:38;;;;;;;8.32;3.75;;;6.60;99.90;;;;;;5029069;28;20124;-63
2023/01/09 11:03:04;;;;;;;9.90;3.50;;;6.60;99.90;;;;;;5027697;28;20120;-62
2023/01/09 11:05:30;;;;;;;7.00;3.53;;;6.60;99.90;;;;;;5028034;28;20128;-62
2023/01/09 11:08:05;;;;;;;6.22;4.05;;;6.60;99.90;;;;;;5025150;28;20060;-63
2023/01/09 11:10:50;;;;;;;7.20;3.40;;;6.50;99.90;;;;;;5028114;28;20056;-62
2023/01/09 11:13:31;;;;;;;7.47;3.90;;;6.50;99.90;;;;;;5030415;28;20045;-63
2023/01/09 11:16:05;;;;;;;10.45;4.32;;;6.50;99.90;;;;;;5031187;28;20378;-63
2023/01/09 11:18:34;;;;;;;10.77;4.00;;;6.50;99.90;;;;;;5026991;28;20053;-62
2023/01/09 11:21:27;;;;;;;9.30;4.30;;;6.50;99.90;;;;;;5032132;28;20041;-63
2023/01/09 11:23:53;;;;;;;9.70;4.38;;;6.50;99.90;;;;;;5026619;28;20041;-62
2023/01/09 11:26:26;;;;;;;8.20;3.95;;;6.50;99.90;;;;;;5026817;28;20041;-63
2023/01/09 11:29:10;;;;;;;8.27;3.85;;;6.50;99.90;;;;;;5030057;28;20045;-63
2023/01/09 11:31:36;;;;;;;9.10;4.28;;;6.60;99.90;;;;;;5025147;28;20033;-62
2023/01/09 11:34:02;;;;;;;7.28;3.75;;;6.60;99.90;;;;;;5027516;28;20037;-62
2023/01/09 11:36:29;;;;;;;7.82;4.10;;;6.60;99.90;;;;;;5028666;28;20677;-62
2023/01/09 11:38:59;;;;;;;16.13;4.40;;;6.60;99.90;;;;;;5025460;28;20068;-63
2023/01/09 11:41:35;;;;;;;8.00;4.57;;;6.60;99.90;;;;;;5026873;28;20117;-62
2023/01/09 11:44:03;;;;;;;9.45;4.22;;;6.70;99.90;;;;;;5027602;28;20087;-63
2023/01/09 11:46:41;;;;;;;11.50;4.65;;;6.70;99.90;;;;;;5027646;28;20049;-62
2023/01/09 11:49:29;;;;;;;8.15;4.22;;;6.70;99.90;;;;;;5018000;28;20056;-62
2023/01/09 11:52:04;;;;;;;6.55;4.30;;;6.70;99.90;;;;;;5029998;28;20038;-62
2023/01/09 11:54:34;;;;;;;9.10;4.60;;;6.70;99.90;;;;;;5019046;28;20033;-63
2023/01/09 11:57:00;;;;;;;7.50;4.13;;;6.70;99.90;;;;;;5022803;28;20956;-63
2023/01/09 11:59:29;;;;;;;11.55;4.68;;;6.60;99.90;;;;;;5014591;28;20061;-62
2023/01/09 12:02:09;;;;;;;10.40;5.50;;;6.70;99.90;;;;;;5015581;28;20042;-62
2023/01/09 12:04:34;;;;;;;;;;;6.60;99.90;;;;;;5011812;28;20390;-63
2023/01/09 12:07:29;;;;;;;9.07;4.57;;;6.60;99.90;;;;;;5020818;28;19983;-62
2023/01/09 12:10:26;;;;;;;12.02;4.70;;;6.60;99.90;;;;;;5019253;28;20049;-63
2023/01/09 12:12:57;;;;;;;12.93;4.93;;;6.70;99.90;;;;;;5026147;28;20112;-63
2023/01/09 12:15:36;;;;;;;10.32;5.45;;;6.70;99.90;;;;;;5021394;28;20069;-62
2023/01/09 12:18:43;;;;;;;11.15;5.70;;;6.60;99.90;;;;;;5011625;28;20044;-63
2023/01/09 12:21:32;;;;;;;9.98;5.43;;;6.70;99.90;;;;;;5012370;28;20092;-62
2023/01/09 12:24:14;;;;;;;14.15;5.85;;;6.70;99.90;;;;;;5012977;28;20052;-63
2023/01/09 12:26:40;;;;;;;11.52;6.25;;;6.70;99.90;;;;;;5022160;28;20569;-62
2023/01/09 12:29:20;;;;;;;12.32;6.10;;;6.70;99.90;;;;;;5011699;28;20045;-62
2023/01/09 12:31:51;;;;;;;9.70;6.03;;;6.70;99.90;;;;;;5009312;28;20080;-62
2023/01/09 12:35:05;;;;;;;12.55;6.25;;;6.80;99.90;;;;;;5004493;28;20069;-63
2023/01/09 12:37:36;;;;;;;11.60;6.07;;;6.80;99.90;;;;;;5021187;28;20045;-63
2023/01/09 12:40:08;;;;;;;11.38;6.03;;;6.90;99.90;;;;;;5022318;28;20048;-62
2023/01/09 12:42:56;;;;;;;13.32;6.28;;;6.90;99.90;;;;;;5012887;28;20083;-62
2023/01/09 12:46:06;;;;;;;14.30;7.13;;;6.90;99.90;;;;;;5011478;28;20077;-62
2023/01/09 12:48:59;;;;;;;12.57;6.60;;;7.00;99.90;;;;;;5019355;28;20044;-63
2023/01/09 12:51:30;;;;;;;14.05;6.28;;;6.90;99.90;;;;;;5023318;28;20165;-62
2023/01/09 12:53:56;;;;;;;12.13;6.13;;;6.90;99.90;;;;;;5007472;28;20038;-62
2023/01/09 12:56:29;;;;;;;14.00;6.30;;;7.00;99.90;;;;;;5023248;28;20103;-62
2023/01/09 12:59:00;;;;;;;13.05;6.47;;;7.00;99.90;;;;;;5012298;28;20045;-62
2023/01/09 13:01:42;;;;;;;12.45;6.72;;;7.10;99.90;;;;;;5020655;28;20108;-63
2023/01/09 13:04:29;;;;;;;15.50;6.80;;;7.10;99.90;;;;;;5016854;28;20087;-62
2023/01/09 13:07:01;;;;;;;10.93;6.03;;;7.10;99.90;;;;;;5024835;28;20103;-62
2023/01/09 13:09:52;;;;;;;10.43;6.22;;;7.10;99.90;;;;;;5029503;28;20044;-62
2023/01/09 13:12:20;;;;;;;;;;;7.10;99.90;;;;;;5039494;28;20076;-62
2023/01/09 13:15:25;;;;;;;11.32;6.63;;;7.00;99.90;;;;;;5028795;28;19924;-62
2023/01/09 13:17:57;;;;;;;10.23;6.00;;;7.00;99.90;;;;;;5019188;28;20046;-62
2023/01/09 13:20:43;;;;;;;14.73;6.25;;;7.00;99.90;;;;;;5019628;28;20037;-61
2023/01/09 13:23:34;;;;;;;13.20;6.70;;;7.00;99.90;;;;;;5024902;28;20045;-62